sensor_id;sensor_type;location;lat;lon;timestamp;P1;durP1;ratioP1;P2;durP2;ratioP2
54191;SDS011;40101;53.002;6.488;2023-09-19T00:02:12;16.67;;;6.15;;
54191;SDS011;40101;53.002;6.488;2023-09-19T00:04:37;11.80;;;6.03;;
54191;SDS011;40101;53.002;6.488;2023-09-19T00:07:05;11.85;;;8.65;;
54191;SDS011;40101;53.002;6.488;2023-09-19T00:09:30;8.32;;;7.53;;
54191;SDS011;40101;53.002;6.488;2023-09-19T00:12:02;14.05;;;7.13;;
54191;SDS011;40101;53.002;6.488;2023-09-19T00:14:31;12.85;;;7.85;;
54191;SDS011;40101;53.002;6.488;2023-09-19T00:17:01;12.20;;;9.25;;
54191;SDS011;40101;53.002;6.488;2023-09-19T00:19:31;7.75;;;5.03;;
54191;SDS011;40101;53.002;6.488;2023-09-19T00:21:57;17.00;;;9.95;;
54191;SDS011;40101;53.002;6.488;2023-09-19T00:24:23;13.48;;;5.47;;
54191;SDS011;40101;53.002;6.488;2023-09-19T00:26:49;10.25;;;6.95;;
54191;SDS011;40101;53.002;6.488;2023-09-19T00:29:14;11.45;;;8.05;;
54191;SDS011;40101;53.002;6.488;2023-09-19T00:31:44;11.75;;;6.55;;
54191;SDS011;40101;53.002;6.488;2023-09-19T00:34:10;16.55;;;9.95;;
54191;SDS011;40101;53.002;6.488;2023-09-19T00:36:36;13.88;;;6.22;;
54191;SDS011;40101;53.002;6.488;2023-09-19T00:39:04;13.07;;;7.43;;
54191;SDS011;40101;53.002;6.488;2023-09-19T00:41:31;10.90;;;5.68;;
54191;SDS011;40101;53.002;6.488;2023-09-19T00:43:57;13.20;;;8.32;;
54191;SDS011;40101;53.002;6.488;2023-09-19T00:46:25;13.68;;;5.53;;
54191;SDS011;40101;53.002;6.488;2023-09-19T00:48:50;18.50;;;9.07;;
54191;SDS011;40101;53.002;6.488;2023-09-19T00:51:16;13.25;;;7.07;;
54191;SDS011;40101;53.002;6.488;2023-09-19T00:53:46;16.60;;;10.98;;
54191;SDS011;40101;53.002;6.488;2023-09-19T00:56:12;12.32;;;7.03;;
54191;SDS011;40101;53.002;6.488;2023-09-19T00:58:38;12.35;;;6.60;;
54191;SDS011;40101;53.002;6.488;2023-09-19T01:01:05;14.32;;;8.20;;
54191;SDS011;40101;53.002;6.488;2023-09-19T01:03:32;10.90;;;7.10;;
54191;SDS011;40101;53.002;6.488;2023-09-19T01:05:59;9.82;;;7.30;;
54191;SDS011;40101;53.002;6.488;2023-09-19T01:08:25;12.15;;;7.85;;
54191;SDS011;40101;53.002;6.488;2023-09-19T01:11:57;12.25;;;7.13;;
54191;SDS011;40101;53.002;6.488;2023-09-19T01:17:06;15.68;;;10.48;;
54191;SDS011;40101;53.002;6.488;2023-09-19T01:22:57;11.00;;;8.45;;
54191;SDS011;40101;53.002;6.488;2023-09-19T01:30:45;12.23;;;5.35;;
54191;SDS011;40101;53.002;6.488;2023-09-19T01:33:13;14.68;;;7.70;;
54191;SDS011;40101;53.002;6.488;2023-09-19T01:35:39;15.32;;;11.15;;
54191;SDS011;40101;53.002;6.488;2023-09-19T01:38:06;15.13;;;8.05;;
54191;SDS011;40101;53.002;6.488;2023-09-19T01:40:43;12.90;;;6.45;;
54191;SDS011;40101;53.002;6.488;2023-09-19T01:43:33;15.88;;;7.18;;
54191;SDS011;40101;53.002;6.488;2023-09-19T01:46:12;11.30;;;5.63;;
54191;SDS011;40101;53.002;6.488;2023-09-19T01:51:45;11.85;;;6.22;;
54191;SDS011;40101;53.002;6.488;2023-09-19T01:54:40;12.48;;;7.28;;
54191;SDS011;40101;53.002;6.488;2023-09-19T01:59:38;12.70;;;5.05;;
54191;SDS011;40101;53.002;6.488;2023-09-19T02:02:10;11.52;;;6.47;;
54191;SDS011;40101;53.002;6.488;2023-09-19T02:04:37;17.42;;;8.43;;
54191;SDS011;40101;53.002;6.488;2023-09-19T02:07:03;10.02;;;5.47;;
54191;SDS011;40101;53.002;6.488;2023-09-19T02:09:30;9.65;;;6.32;;
54191;SDS011;40101;53.002;6.488;2023-09-19T02:12:00;8.13;;;5.82;;
54191;SDS011;40101;53.002;6.488;2023-09-19T02:14:26;10.77;;;5.13;;
54191;SDS011;40101;53.002;6.488;2023-09-19T02:16:52;8.52;;;5.43;;
54191;SDS011;40101;53.002;6.488;2023-09-19T02:19:18;12.68;;;9.35;;
54191;SDS011;40101;53.002;6.488;2023-09-19T02:21:46;15.85;;;5.20;;
54191;SDS011;40101;53.002;6.488;2023-09-19T02:24:13;19.75;;;7.82;;
54191;SDS011;40101;53.002;6.488;2023-09-19T02:26:40;11.10;;;6.10;;
54191;SDS011;40101;53.002;6.488;2023-09-19T02:29:06;10.45;;;8.13;;
54191;SDS011;40101;53.002;6.488;2023-09-19T02:31:31;10.30;;;7.82;;
54191;SDS011;40101;53.002;6.488;2023-09-19T02:33:57;14.48;;;8.00;;
54191;SDS011;40101;53.002;6.488;2023-09-19T02:36:23;15.60;;;9.85;;
54191;SDS011;40101;53.002;6.488;2023-09-19T02:38:49;14.95;;;6.28;;
54191;SDS011;40101;53.002;6.488;2023-09-19T02:41:14;11.68;;;9.23;;
54191;SDS011;40101;53.002;6.488;2023-09-19T02:43:40;16.83;;;10.32;;
54191;SDS011;40101;53.002;6.488;2023-09-19T02:46:07;15.10;;;8.57;;
54191;SDS011;40101;53.002;6.488;2023-09-19T02:48:33;10.23;;;5.03;;
54191;SDS011;40101;53.002;6.488;2023-09-19T02:51:00;11.40;;;7.35;;
54191;SDS011;40101;53.002;6.488;2023-09-19T02:53:26;9.57;;;8.38;;
54191;SDS011;40101;53.002;6.488;2023-09-19T02:55:52;19.38;;;9.25;;
54191;SDS011;40101;53.002;6.488;2023-09-19T02:58:18;12.73;;;7.97;;
54191;SDS011;40101;53.002;6.488;2023-09-19T03:00:44;15.77;;;9.00;;
54191;SDS011;40101;53.002;6.488;2023-09-19T03:03:14;19.25;;;11.35;;
54191;SDS011;40101;53.002;6.488;2023-09-19T03:05:41;12.98;;;7.55;;
54191;SDS011;40101;53.002;6.488;2023-09-19T03:08:12;11.15;;;8.60;;
54191;SDS011;40101;53.002;6.488;2023-09-19T03:10:40;10.13;;;8.02;;
54191;SDS011;40101;53.002;6.488;2023-09-19T03:13:05;16.98;;;10.45;;
54191;SDS011;40101;53.002;6.488;2023-09-19T03:15:34;21.13;;;11.23;;
54191;SDS011;40101;53.002;6.488;2023-09-19T03:18:03;13.90;;;12.27;;
54191;SDS011;40101;53.002;6.488;2023-09-19T03:20:29;11.80;;;7.78;;
54191;SDS011;40101;53.002;6.488;2023-09-19T03:22:55;22.58;;;11.50;;
54191;SDS011;40101;53.002;6.488;2023-09-19T03:25:22;13.93;;;7.55;;
54191;SDS011;40101;53.002;6.488;2023-09-19T03:27:47;20.50;;;12.38;;
54191;SDS011;40101;53.002;6.488;2023-09-19T03:30:13;10.02;;;6.22;;
54191;SDS011;40101;53.002;6.488;2023-09-19T03:32:46;14.02;;;10.70;;
54191;SDS011;40101;53.002;6.488;2023-09-19T03:35:14;18.73;;;10.50;;
54191;SDS011;40101;53.002;6.488;2023-09-19T03:37:41;15.55;;;10.63;;
54191;SDS011;40101;53.002;6.488;2023-09-19T03:40:08;13.27;;;11.88;;
54191;SDS011;40101;53.002;6.488;2023-09-19T03:42:37;15.18;;;13.73;;
54191;SDS011;40101;53.002;6.488;2023-09-19T03:45:04;13.43;;;12.18;;
54191;SDS011;40101;53.002;6.488;2023-09-19T03:47:31;10.13;;;7.78;;
54191;SDS011;40101;53.002;6.488;2023-09-19T03:49:56;16.60;;;12.13;;
54191;SDS011;40101;53.002;6.488;2023-09-19T03:52:22;13.40;;;8.95;;
54191;SDS011;40101;53.002;6.488;2023-09-19T03:54:47;15.10;;;10.50;;
54191;SDS011;40101;53.002;6.488;2023-09-19T03:57:14;8.45;;;7.65;;
54191;SDS011;40101;53.002;6.488;2023-09-19T03:59:42;13.93;;;12.00;;
54191;SDS011;40101;53.002;6.488;2023-09-19T04:02:11;12.70;;;8.63;;
54191;SDS011;40101;53.002;6.488;2023-09-19T04:04:47;25.63;;;7.20;;
54191;SDS011;40101;53.002;6.488;2023-09-19T04:07:13;9.85;;;7.93;;
54191;SDS011;40101;53.002;6.488;2023-09-19T04:09:39;11.65;;;8.60;;
54191;SDS011;40101;53.002;6.488;2023-09-19T04:12:04;11.68;;;8.73;;
54191;SDS011;40101;53.002;6.488;2023-09-19T04:14:30;10.13;;;9.18;;
54191;SDS011;40101;53.002;6.488;2023-09-19T04:16:56;11.15;;;7.38;;
54191;SDS011;40101;53.002;6.488;2023-09-19T04:19:21;16.25;;;8.65;;
54191;SDS011;40101;53.002;6.488;2023-09-19T04:21:47;13.98;;;5.95;;
54191;SDS011;40101;53.002;6.488;2023-09-19T04:24:13;8.32;;;6.50;;
54191;SDS011;40101;53.002;6.488;2023-09-19T04:26:39;20.75;;;16.48;;
54191;SDS011;40101;53.002;6.488;2023-09-19T04:29:04;11.90;;;10.68;;
54191;SDS011;40101;53.002;6.488;2023-09-19T04:31:31;14.25;;;10.20;;
54191;SDS011;40101;53.002;6.488;2023-09-19T04:33:56;14.80;;;7.75;;
54191;SDS011;40101;53.002;6.488;2023-09-19T04:36:24;13.77;;;10.38;;
54191;SDS011;40101;53.002;6.488;2023-09-19T04:38:50;13.55;;;10.52;;
54191;SDS011;40101;53.002;6.488;2023-09-19T04:41:15;18.30;;;11.45;;
54191;SDS011;40101;53.002;6.488;2023-09-19T04:43:41;16.08;;;10.93;;
54191;SDS011;40101;53.002;6.488;2023-09-19T04:46:06;16.77;;;15.15;;
54191;SDS011;40101;53.002;6.488;2023-09-19T04:48:32;16.38;;;14.77;;
54191;SDS011;40101;53.002;6.488;2023-09-19T04:50:59;24.63;;;20.95;;
54191;SDS011;40101;53.002;6.488;2023-09-19T04:53:25;23.48;;;20.88;;
54191;SDS011;40101;53.002;6.488;2023-09-19T04:55:52;21.35;;;19.13;;
54191;SDS011;40101;53.002;6.488;2023-09-19T04:58:20;24.98;;;22.73;;
54191;SDS011;40101;53.002;6.488;2023-09-19T05:00:46;24.67;;;22.15;;
54191;SDS011;40101;53.002;6.488;2023-09-19T05:03:12;15.02;;;13.68;;
54191;SDS011;40101;53.002;6.488;2023-09-19T05:05:37;19.13;;;16.38;;
54191;SDS011;40101;53.002;6.488;2023-09-19T05:08:04;18.55;;;15.77;;
54191;SDS011;40101;53.002;6.488;2023-09-19T05:10:30;22.88;;;20.45;;
54191;SDS011;40101;53.002;6.488;2023-09-19T05:12:57;26.40;;;23.83;;
54191;SDS011;40101;53.002;6.488;2023-09-19T05:15:23;29.17;;;26.75;;
54191;SDS011;40101;53.002;6.488;2023-09-19T05:17:49;24.80;;;22.23;;
54191;SDS011;40101;53.002;6.488;2023-09-19T05:20:20;24.10;;;21.63;;
54191;SDS011;40101;53.002;6.488;2023-09-19T05:23:01;31.55;;;29.17;;
54191;SDS011;40101;53.002;6.488;2023-09-19T05:25:37;25.85;;;23.33;;
54191;SDS011;40101;53.002;6.488;2023-09-19T05:28:08;30.75;;;28.00;;
54191;SDS011;40101;53.002;6.488;2023-09-19T05:30:36;23.77;;;20.17;;
54191;SDS011;40101;53.002;6.488;2023-09-19T05:33:06;33.55;;;30.88;;
54191;SDS011;40101;53.002;6.488;2023-09-19T05:35:32;33.13;;;30.55;;
54191;SDS011;40101;53.002;6.488;2023-09-19T05:37:58;40.92;;;36.95;;
54191;SDS011;40101;53.002;6.488;2023-09-19T05:40:24;32.10;;;29.45;;
54191;SDS011;40101;53.002;6.488;2023-09-19T05:42:54;26.98;;;24.73;;
54191;SDS011;40101;53.002;6.488;2023-09-19T05:45:19;38.60;;;35.63;;
54191;SDS011;40101;53.002;6.488;2023-09-19T05:47:53;21.73;;;19.38;;
54191;SDS011;40101;53.002;6.488;2023-09-19T05:50:29;31.73;;;28.70;;
54191;SDS011;40101;53.002;6.488;2023-09-19T05:52:55;29.15;;;26.08;;
54191;SDS011;40101;53.002;6.488;2023-09-19T05:55:23;27.02;;;24.55;;
54191;SDS011;40101;53.002;6.488;2023-09-19T05:57:51;23.55;;;21.25;;
54191;SDS011;40101;53.002;6.488;2023-09-19T06:00:21;27.60;;;25.33;;
54191;SDS011;40101;53.002;6.488;2023-09-19T06:05:18;26.20;;;23.75;;
54191;SDS011;40101;53.002;6.488;2023-09-19T06:07:43;31.85;;;29.23;;
54191;SDS011;40101;53.002;6.488;2023-09-19T06:10:09;23.15;;;21.00;;
54191;SDS011;40101;53.002;6.488;2023-09-19T06:12:38;26.10;;;22.23;;
54191;SDS011;40101;53.002;6.488;2023-09-19T06:15:04;31.75;;;28.90;;
54191;SDS011;40101;53.002;6.488;2023-09-19T06:17:31;23.70;;;21.25;;
54191;SDS011;40101;53.002;6.488;2023-09-19T06:19:57;29.10;;;26.30;;
54191;SDS011;40101;53.002;6.488;2023-09-19T06:22:22;46.03;;;24.63;;
54191;SDS011;40101;53.002;6.488;2023-09-19T06:24:49;30.38;;;27.80;;
54191;SDS011;40101;53.002;6.488;2023-09-19T06:27:15;26.65;;;24.48;;
54191;SDS011;40101;53.002;6.488;2023-09-19T06:29:40;35.95;;;32.38;;
54191;SDS011;40101;53.002;6.488;2023-09-19T06:32:07;34.40;;;31.08;;
54191;SDS011;40101;53.002;6.488;2023-09-19T06:34:36;32.38;;;29.42;;
54191;SDS011;40101;53.002;6.488;2023-09-19T06:37:03;27.17;;;24.48;;
54191;SDS011;40101;53.002;6.488;2023-09-19T06:39:31;32.92;;;29.77;;
54191;SDS011;40101;53.002;6.488;2023-09-19T06:41:56;33.72;;;30.50;;
54191;SDS011;40101;53.002;6.488;2023-09-19T06:44:23;27.40;;;22.33;;
54191;SDS011;40101;53.002;6.488;2023-09-19T06:46:49;30.27;;;27.52;;
54191;SDS011;40101;53.002;6.488;2023-09-19T06:49:16;25.13;;;22.50;;
54191;SDS011;40101;53.002;6.488;2023-09-19T06:51:42;26.25;;;21.67;;
54191;SDS011;40101;53.002;6.488;2023-09-19T06:54:09;36.85;;;33.83;;
54191;SDS011;40101;53.002;6.488;2023-09-19T06:56:37;21.92;;;20.05;;
54191;SDS011;40101;53.002;6.488;2023-09-19T06:59:03;26.17;;;23.90;;
54191;SDS011;40101;53.002;6.488;2023-09-19T07:01:31;24.27;;;21.77;;
54191;SDS011;40101;53.002;6.488;2023-09-19T07:03:57;25.15;;;22.73;;
54191;SDS011;40101;53.002;6.488;2023-09-19T07:06:22;21.80;;;19.80;;
54191;SDS011;40101;53.002;6.488;2023-09-19T07:08:49;23.52;;;17.52;;
54191;SDS011;40101;53.002;6.488;2023-09-19T07:11:15;18.90;;;13.63;;
54191;SDS011;40101;53.002;6.488;2023-09-19T07:13:41;19.80;;;17.98;;
54191;SDS011;40101;53.002;6.488;2023-09-19T07:16:06;24.65;;;22.75;;
54191;SDS011;40101;53.002;6.488;2023-09-19T07:18:35;21.58;;;18.42;;
54191;SDS011;40101;53.002;6.488;2023-09-19T07:21:01;20.70;;;14.35;;
54191;SDS011;40101;53.002;6.488;2023-09-19T07:23:29;16.45;;;14.23;;
54191;SDS011;40101;53.002;6.488;2023-09-19T07:26:00;22.17;;;20.10;;
54191;SDS011;40101;53.002;6.488;2023-09-19T07:28:26;19.38;;;14.63;;
54191;SDS011;40101;53.002;6.488;2023-09-19T07:30:53;17.60;;;13.85;;
54191;SDS011;40101;53.002;6.488;2023-09-19T07:33:19;16.08;;;13.27;;
54191;SDS011;40101;53.002;6.488;2023-09-19T07:35:45;27.70;;;25.33;;
54191;SDS011;40101;53.002;6.488;2023-09-19T07:38:12;28.02;;;25.75;;
54191;SDS011;40101;53.002;6.488;2023-09-19T07:40:38;30.13;;;27.38;;
54191;SDS011;40101;53.002;6.488;2023-09-19T07:43:04;43.65;;;40.53;;
54191;SDS011;40101;53.002;6.488;2023-09-19T07:45:31;37.33;;;33.67;;
54191;SDS011;40101;53.002;6.488;2023-09-19T07:47:57;38.42;;;35.17;;
54191;SDS011;40101;53.002;6.488;2023-09-19T07:50:25;47.85;;;43.95;;
54191;SDS011;40101;53.002;6.488;2023-09-19T07:52:51;42.65;;;39.30;;
54191;SDS011;40101;53.002;6.488;2023-09-19T07:55:18;69.65;;;63.63;;
54191;SDS011;40101;53.002;6.488;2023-09-19T07:57:44;52.28;;;47.95;;
54191;SDS011;40101;53.002;6.488;2023-09-19T08:00:11;63.83;;;58.17;;
54191;SDS011;40101;53.002;6.488;2023-09-19T08:02:41;77.10;;;70.32;;
54191;SDS011;40101;53.002;6.488;2023-09-19T08:05:08;42.33;;;38.60;;
54191;SDS011;40101;53.002;6.488;2023-09-19T08:07:35;51.72;;;47.95;;
54191;SDS011;40101;53.002;6.488;2023-09-19T08:10:05;33.45;;;29.92;;
54191;SDS011;40101;53.002;6.488;2023-09-19T08:12:42;57.58;;;52.65;;
54191;SDS011;40101;53.002;6.488;2023-09-19T08:15:12;41.88;;;37.47;;
54191;SDS011;40101;53.002;6.488;2023-09-19T08:17:41;53.15;;;48.95;;
54191;SDS011;40101;53.002;6.488;2023-09-19T08:20:08;62.47;;;57.10;;
54191;SDS011;40101;53.002;6.488;2023-09-19T08:22:41;51.40;;;46.05;;
54191;SDS011;40101;53.002;6.488;2023-09-19T08:25:09;84.97;;;76.93;;
54191;SDS011;40101;53.002;6.488;2023-09-19T08:27:34;57.45;;;52.40;;
54191;SDS011;40101;53.002;6.488;2023-09-19T08:30:01;84.03;;;76.47;;
54191;SDS011;40101;53.002;6.488;2023-09-19T08:32:28;88.55;;;80.25;;
54191;SDS011;40101;53.002;6.488;2023-09-19T08:34:54;103.65;;;93.43;;
54191;SDS011;40101;53.002;6.488;2023-09-19T08:37:20;115.13;;;104.00;;
54191;SDS011;40101;53.002;6.488;2023-09-19T08:39:46;107.60;;;89.85;;
54191;SDS011;40101;53.002;6.488;2023-09-19T08:42:12;65.72;;;59.72;;
54191;SDS011;40101;53.002;6.488;2023-09-19T08:44:38;106.45;;;96.50;;
54191;SDS011;40101;53.002;6.488;2023-09-19T08:47:09;100.30;;;91.90;;
54191;SDS011;40101;53.002;6.488;2023-09-19T08:49:41;99.85;;;91.35;;
54191;SDS011;40101;53.002;6.488;2023-09-19T08:52:45;100.35;;;90.95;;
54191;SDS011;40101;53.002;6.488;2023-09-19T08:55:13;27.35;;;24.77;;
54191;SDS011;40101;53.002;6.488;2023-09-19T08:57:45;10.93;;;6.85;;
54191;SDS011;40101;53.002;6.488;2023-09-19T09:00:14;18.35;;;14.40;;
54191;SDS011;40101;53.002;6.488;2023-09-19T09:02:43;12.88;;;9.82;;
54191;SDS011;40101;53.002;6.488;2023-09-19T09:05:10;12.43;;;7.45;;
54191;SDS011;40101;53.002;6.488;2023-09-19T09:07:36;11.23;;;7.25;;
54191;SDS011;40101;53.002;6.488;2023-09-19T09:10:03;18.02;;;12.50;;
54191;SDS011;40101;53.002;6.488;2023-09-19T09:12:29;11.52;;;7.60;;
54191;SDS011;40101;53.002;6.488;2023-09-19T09:14:56;11.18;;;4.68;;
54191;SDS011;40101;53.002;6.488;2023-09-19T09:17:22;17.58;;;10.93;;
54191;SDS011;40101;53.002;6.488;2023-09-19T09:19:51;11.07;;;4.35;;
54191;SDS011;40101;53.002;6.488;2023-09-19T09:22:17;9.32;;;5.28;;
54191;SDS011;40101;53.002;6.488;2023-09-19T09:24:56;7.88;;;4.25;;
54191;SDS011;40101;53.002;6.488;2023-09-19T09:27:30;15.30;;;8.13;;
54191;SDS011;40101;53.002;6.488;2023-09-19T09:29:57;13.88;;;6.75;;
54191;SDS011;40101;53.002;6.488;2023-09-19T09:32:30;9.48;;;6.70;;
54191;SDS011;40101;53.002;6.488;2023-09-19T09:34:59;19.83;;;8.32;;
54191;SDS011;40101;53.002;6.488;2023-09-19T09:37:26;8.27;;;5.13;;
54191;SDS011;40101;53.002;6.488;2023-09-19T09:40:02;8.73;;;4.57;;
54191;SDS011;40101;53.002;6.488;2023-09-19T09:42:40;14.52;;;6.72;;
54191;SDS011;40101;53.002;6.488;2023-09-19T09:47:51;17.50;;;6.63;;
54191;SDS011;40101;53.002;6.488;2023-09-19T09:50:33;12.20;;;4.20;;
54191;SDS011;40101;53.002;6.488;2023-09-19T09:53:25;11.50;;;5.97;;
54191;SDS011;40101;53.002;6.488;2023-09-19T10:01:13;12.63;;;5.05;;
54191;SDS011;40101;53.002;6.488;2023-09-19T10:03:41;19.08;;;6.85;;
54191;SDS011;40101;53.002;6.488;2023-09-19T10:06:13;11.38;;;4.22;;
54191;SDS011;40101;53.002;6.488;2023-09-19T10:08:58;8.20;;;4.07;;
54191;SDS011;40101;53.002;6.488;2023-09-19T10:11:30;8.32;;;4.05;;
54191;SDS011;40101;53.002;6.488;2023-09-19T10:13:57;13.95;;;2.90;;
54191;SDS011;40101;53.002;6.488;2023-09-19T10:16:26;14.45;;;4.70;;
54191;SDS011;40101;53.002;6.488;2023-09-19T10:18:56;8.40;;;4.40;;
54191;SDS011;40101;53.002;6.488;2023-09-19T10:21:26;13.23;;;4.97;;
54191;SDS011;40101;53.002;6.488;2023-09-19T10:23:55;17.33;;;7.97;;
54191;SDS011;40101;53.002;6.488;2023-09-19T10:26:24;7.32;;;3.42;;
54191;SDS011;40101;53.002;6.488;2023-09-19T10:28:56;21.13;;;4.07;;
54191;SDS011;40101;53.002;6.488;2023-09-19T10:31:24;8.05;;;2.60;;
54191;SDS011;40101;53.002;6.488;2023-09-19T10:33:52;10.85;;;3.70;;
54191;SDS011;40101;53.002;6.488;2023-09-19T10:36:20;11.07;;;4.30;;
54191;SDS011;40101;53.002;6.488;2023-09-19T10:38:52;10.48;;;3.08;;
54191;SDS011;40101;53.002;6.488;2023-09-19T10:41:22;14.35;;;4.50;;
54191;SDS011;40101;53.002;6.488;2023-09-19T10:43:48;13.13;;;6.70;;
54191;SDS011;40101;53.002;6.488;2023-09-19T10:46:15;11.52;;;4.47;;
54191;SDS011;40101;53.002;6.488;2023-09-19T10:48:41;11.80;;;4.40;;
54191;SDS011;40101;53.002;6.488;2023-09-19T10:51:10;14.65;;;5.22;;
54191;SDS011;40101;53.002;6.488;2023-09-19T10:56:31;15.43;;;8.95;;
54191;SDS011;40101;53.002;6.488;2023-09-19T10:59:05;21.80;;;10.70;;
54191;SDS011;40101;53.002;6.488;2023-09-19T11:09:45;13.35;;;4.63;;
54191;SDS011;40101;53.002;6.488;2023-09-19T11:14:54;18.23;;;6.20;;
54191;SDS011;40101;53.002;6.488;2023-09-19T11:30:34;7.55;;;4.28;;
54191;SDS011;40101;53.002;6.488;2023-09-19T11:46:28;18.15;;;7.47;;
54191;SDS011;40101;53.002;6.488;2023-09-19T11:49:07;7.15;;;3.80;;
54191;SDS011;40101;53.002;6.488;2023-09-19T11:51:42;10.68;;;2.75;;
54191;SDS011;40101;53.002;6.488;2023-09-19T11:54:12;10.93;;;3.72;;
54191;SDS011;40101;53.002;6.488;2023-09-19T11:56:43;10.90;;;4.47;;
54191;SDS011;40101;53.002;6.488;2023-09-19T11:59:19;11.15;;;3.80;;
54191;SDS011;40101;53.002;6.488;2023-09-19T12:01:50;13.77;;;4.60;;
54191;SDS011;40101;53.002;6.488;2023-09-19T12:04:33;12.93;;;5.88;;
54191;SDS011;40101;53.002;6.488;2023-09-19T12:07:03;13.23;;;4.75;;
54191;SDS011;40101;53.002;6.488;2023-09-19T12:09:37;10.73;;;3.25;;
54191;SDS011;40101;53.002;6.488;2023-09-19T12:12:05;9.95;;;3.97;;
54191;SDS011;40101;53.002;6.488;2023-09-19T12:14:32;11.23;;;3.72;;
54191;SDS011;40101;53.002;6.488;2023-09-19T12:16:58;11.57;;;3.22;;
54191;SDS011;40101;53.002;6.488;2023-09-19T12:19:26;10.30;;;3.50;;
54191;SDS011;40101;53.002;6.488;2023-09-19T12:21:55;13.38;;;5.97;;
54191;SDS011;40101;53.002;6.488;2023-09-19T12:24:29;10.40;;;4.75;;
54191;SDS011;40101;53.002;6.488;2023-09-19T12:27:02;10.77;;;3.92;;
54191;SDS011;40101;53.002;6.488;2023-09-19T12:29:41;38.88;;;17.67;;
54191;SDS011;40101;53.002;6.488;2023-09-19T12:32:08;11.05;;;3.17;;
54191;SDS011;40101;53.002;6.488;2023-09-19T12:34:34;11.02;;;4.53;;
54191;SDS011;40101;53.002;6.488;2023-09-19T12:39:39;7.88;;;3.25;;
54191;SDS011;40101;53.002;6.488;2023-09-19T12:42:13;11.30;;;4.28;;
54191;SDS011;40101;53.002;6.488;2023-09-19T12:44:47;9.05;;;4.25;;
54191;SDS011;40101;53.002;6.488;2023-09-19T12:47:17;11.77;;;4.15;;
54191;SDS011;40101;53.002;6.488;2023-09-19T12:52:46;9.70;;;2.70;;
54191;SDS011;40101;53.002;6.488;2023-09-19T12:55:28;14.77;;;6.82;;
54191;SDS011;40101;53.002;6.488;2023-09-19T13:00:43;6.72;;;3.17;;
54191;SDS011;40101;53.002;6.488;2023-09-19T13:03:14;12.20;;;3.92;;
54191;SDS011;40101;53.002;6.488;2023-09-19T13:06:12;11.55;;;3.03;;
54191;SDS011;40101;53.002;6.488;2023-09-19T13:08:42;9.25;;;7.70;;
54191;SDS011;40101;53.002;6.488;2023-09-19T13:11:12;7.88;;;2.40;;
54191;SDS011;40101;53.002;6.488;2023-09-19T13:16:06;8.23;;;2.45;;
54191;SDS011;40101;53.002;6.488;2023-09-19T13:18:45;11.38;;;4.50;;
54191;SDS011;40101;53.002;6.488;2023-09-19T13:21:15;10.75;;;2.42;;
54191;SDS011;40101;53.002;6.488;2023-09-19T13:23:52;9.50;;;3.42;;
54191;SDS011;40101;53.002;6.488;2023-09-19T13:26:21;7.57;;;2.30;;
54191;SDS011;40101;53.002;6.488;2023-09-19T13:28:47;7.60;;;3.65;;
54191;SDS011;40101;53.002;6.488;2023-09-19T13:31:14;10.52;;;3.30;;
54191;SDS011;40101;53.002;6.488;2023-09-19T13:33:47;10.75;;;6.22;;
54191;SDS011;40101;53.002;6.488;2023-09-19T13:36:14;21.65;;;15.23;;
54191;SDS011;40101;53.002;6.488;2023-09-19T13:38:40;5.95;;;3.25;;
54191;SDS011;40101;53.002;6.488;2023-09-19T13:41:08;8.20;;;5.15;;
54191;SDS011;40101;53.002;6.488;2023-09-19T13:43:38;7.13;;;4.75;;
54191;SDS011;40101;53.002;6.488;2023-09-19T13:46:04;8.30;;;6.13;;
54191;SDS011;40101;53.002;6.488;2023-09-19T13:48:30;34.53;;;14.30;;
54191;SDS011;40101;53.002;6.488;2023-09-19T13:50:56;7.10;;;2.88;;
54191;SDS011;40101;53.002;6.488;2023-09-19T13:53:22;7.47;;;1.77;;
54191;SDS011;40101;53.002;6.488;2023-09-19T13:55:48;10.00;;;3.80;;
54191;SDS011;40101;53.002;6.488;2023-09-19T13:58:14;8.43;;;4.40;;
54191;SDS011;40101;53.002;6.488;2023-09-19T14:00:40;5.53;;;4.25;;
54191;SDS011;40101;53.002;6.488;2023-09-19T14:03:05;6.65;;;3.95;;
54191;SDS011;40101;53.002;6.488;2023-09-19T14:05:31;4.32;;;2.55;;
54191;SDS011;40101;53.002;6.488;2023-09-19T14:07:57;11.85;;;6.57;;
54191;SDS011;40101;53.002;6.488;2023-09-19T14:10:24;6.65;;;2.55;;
54191;SDS011;40101;53.002;6.488;2023-09-19T14:12:52;8.60;;;7.82;;
54191;SDS011;40101;53.002;6.488;2023-09-19T14:15:18;5.78;;;3.45;;
54191;SDS011;40101;53.002;6.488;2023-09-19T14:17:44;9.93;;;4.63;;
54191;SDS011;40101;53.002;6.488;2023-09-19T14:20:12;8.13;;;3.10;;
54191;SDS011;40101;53.002;6.488;2023-09-19T14:22:38;9.20;;;5.95;;
54191;SDS011;40101;53.002;6.488;2023-09-19T14:25:04;9.02;;;6.55;;
54191;SDS011;40101;53.002;6.488;2023-09-19T14:27:30;9.73;;;5.30;;
54191;SDS011;40101;53.002;6.488;2023-09-19T14:29:56;6.18;;;3.58;;
54191;SDS011;40101;53.002;6.488;2023-09-19T14:32:22;6.95;;;3.30;;
54191;SDS011;40101;53.002;6.488;2023-09-19T14:34:48;8.10;;;4.22;;
54191;SDS011;40101;53.002;6.488;2023-09-19T14:37:14;14.65;;;9.25;;
54191;SDS011;40101;53.002;6.488;2023-09-19T14:39:41;9.18;;;7.93;;
54191;SDS011;40101;53.002;6.488;2023-09-19T14:42:09;11.23;;;3.25;;
54191;SDS011;40101;53.002;6.488;2023-09-19T14:44:36;5.00;;;2.55;;
54191;SDS011;40101;53.002;6.488;2023-09-19T14:47:02;5.47;;;4.40;;
54191;SDS011;40101;53.002;6.488;2023-09-19T14:49:35;5.57;;;4.72;;
54191;SDS011;40101;53.002;6.488;2023-09-19T14:52:08;3.88;;;3.30;;
54191;SDS011;40101;53.002;6.488;2023-09-19T14:54:35;5.68;;;2.53;;
54191;SDS011;40101;53.002;6.488;2023-09-19T14:57:03;5.70;;;3.72;;
54191;SDS011;40101;53.002;6.488;2023-09-19T14:59:32;5.80;;;4.97;;
54191;SDS011;40101;53.002;6.488;2023-09-19T15:02:07;11.45;;;5.78;;
54191;SDS011;40101;53.002;6.488;2023-09-19T15:04:33;2.85;;;2.15;;
54191;SDS011;40101;53.002;6.488;2023-09-19T15:06:58;5.00;;;3.45;;
54191;SDS011;40101;53.002;6.488;2023-09-19T15:09:24;19.00;;;14.85;;
54191;SDS011;40101;53.002;6.488;2023-09-19T15:11:53;7.05;;;2.88;;
54191;SDS011;40101;53.002;6.488;2023-09-19T15:14:19;23.15;;;11.25;;
54191;SDS011;40101;53.002;6.488;2023-09-19T15:16:46;7.93;;;4.82;;
54191;SDS011;40101;53.002;6.488;2023-09-19T15:19:13;9.05;;;8.30;;
54191;SDS011;40101;53.002;6.488;2023-09-19T15:21:38;5.78;;;3.58;;
54191;SDS011;40101;53.002;6.488;2023-09-19T15:24:05;10.30;;;7.00;;
54191;SDS011;40101;53.002;6.488;2023-09-19T15:26:35;7.30;;;4.50;;
54191;SDS011;40101;53.002;6.488;2023-09-19T15:29:06;13.48;;;7.95;;
54191;SDS011;40101;53.002;6.488;2023-09-19T15:31:34;6.72;;;4.10;;
54191;SDS011;40101;53.002;6.488;2023-09-19T15:34:03;7.22;;;2.30;;
54191;SDS011;40101;53.002;6.488;2023-09-19T15:36:32;5.53;;;4.00;;
54191;SDS011;40101;53.002;6.488;2023-09-19T15:41:38;4.63;;;4.22;;
54191;SDS011;40101;53.002;6.488;2023-09-19T15:44:12;8.13;;;7.38;;
54191;SDS011;40101;53.002;6.488;2023-09-19T15:46:40;14.93;;;9.50;;
54191;SDS011;40101;53.002;6.488;2023-09-19T15:49:06;10.32;;;6.15;;
54191;SDS011;40101;53.002;6.488;2023-09-19T15:51:32;11.68;;;6.45;;
54191;SDS011;40101;53.002;6.488;2023-09-19T15:54:01;7.18;;;6.53;;
54191;SDS011;40101;53.002;6.488;2023-09-19T15:56:31;17.25;;;11.52;;
54191;SDS011;40101;53.002;6.488;2023-09-19T15:59:00;12.43;;;10.07;;
54191;SDS011;40101;53.002;6.488;2023-09-19T16:01:26;27.70;;;17.00;;